Tune, Denmark
Current Conditions -  °F | °C
As of 12:50 AM on Saturday 25 Oct 2014 (Local Time) from EKRK Reporting Station
Broken Clouds Broken Clouds  
Wind Chill: 10°   Ceiling: 1300
Heat Index: 10°   Visibility: 4mi
Dew Point:   Wind: 14mph
Humidity: 94%   Direction: 170°S
Pressure: 30.03"   Gusts: NA
Location:  55.6°N, 12.18°E
Report Text: EKRK 242250Z AUTO 17012KT 6000NDV SCT010/// BKN013///BKN039/// 10/09 Q1017
Loading
Personal Weather Stations






























Interactive Weather Map
Tropical Storm Tracking
New forecast layout! Learn more

10-Day Weather Forecast

Advertisements
Track Severe Weather on mobile